Tel Aviv, Israel

6:35 PM IDT on September 29, 2016 (GMT +0300)
Ben-Shemen | | Change Station

Elev 197 ft 31.95 °N, 34.92 °E | Updated 2 minutes ago

Clear
Clear
80.2 °F
Feels Like 84 °F
N
10.7
Wind Variable Wind from West
Gusts 10.7 mph

Today
High -- | Low -- °F
--% Chance of Precip.
Yesterday
High -- | Low -- °F
Precip. -- in
Pressure 29.95 in
Visibility -9999.0 miles
Clouds
Heat Index 84 °F
Dew Point 72 °F
Humidity 75%
Rainfall 0.00 in
Snow Depth Not available.
6:33 AM 6:27 PM
Waning Crescent, 2% visible
METAR LLBG 291520Z 35014KT CAVOK 27/18 Q1014 NOSIG
Pressure 29.95 in
Visibility -9999.0 miles
Clouds
Heat Index 84 °F
Dew Point 72 °F
Humidity 75%
Rainfall 0.00 in
Snow Depth Not available.
6:33 AM 6:27 PM
Waning Crescent, 2% visible
METAR LLBG 291520Z 35014KT CAVOK 27/18 Q1014 NOSIG

10-Day Weather Forecast

No radar image for this location.
×

Almanac

Astronomy

Sep. 29, 2016 Rise Set
Actual Time
Civil Twilight
Nautical Twilight
Astronomical Twilight
Moon
Length of Visible Light
Length of Day
Tomorrow will be .
, % of the Moon is Illuminated

Today's Extremes

Country Highs Country Lows

Community

WunderPhotos

Upload Photos

1,942,499 photos uploaded!

WunderBlog® & News

Nearby

Air Quality

  Air Quality AQ Index Pollutant
Not available.

Snow Depth

Station Depth Elevation

Earthquake Activity

City Distance Mag. Time & Date
Minimum magnitude displayed is 2.5.

Coastal Water Temperatures

Place Temperature

Stations

Nearby Weather Stations

Station Location Temp. Windchill Dew Point Humidity Wind Precip. Elev Updated Type